Time;durP1;ratioP1;P1;durP2;ratioP2;P2;SDS_P1;SDS_P2;PMS_P1;PMS_P2;Temp;Humidity;BMP_temperature;BMP_pressure;BME280_temperature;BME280_humidity;BME280_pressure;Samples;Min_cycle;Max_cycle;Signal;HPM_P1;HPM_P2
2023/03/11 00:00:33;;;;;;;5.72;0.77;;;4.30;99.90;;;;;;5054537;28;20027;-74
2023/03/11 00:03:01;;;;;;;6.97;0.95;;;4.20;99.90;;;;;;5053976;28;20025;-74
2023/03/11 00:05:33;;;;;;;7.07;1.00;;;4.20;99.90;;;;;;5036764;28;20029;-74
2023/03/11 00:07:59;;;;;;;8.60;0.90;;;4.10;99.90;;;;;;5036439;28;20029;-74
2023/03/11 00:10:29;;;;;;;8.85;1.50;;;4.10;99.90;;;;;;5053936;28;20033;-74
2023/03/11 00:12:55;;;;;;;8.68;1.63;;;4.10;99.90;;;;;;5054258;28;20052;-74
2023/03/11 00:15:21;;;;;;;5.13;0.75;;;4.00;99.90;;;;;;5036446;28;20477;-74
2023/03/11 00:17:47;;;;;;;5.95;0.80;;;4.00;99.90;;;;;;5019737;28;20051;-74
2023/03/11 00:20:22;;;;;;;7.22;1.33;;;4.00;99.90;;;;;;5036205;28;20039;-74
2023/03/11 00:22:49;;;;;;;7.82;1.40;;;4.00;99.90;;;;;;5036199;28;20075;-74
2023/03/11 00:25:16;;;;;;;8.45;1.00;;;4.00;99.90;;;;;;5036371;28;20033;-72
2023/03/11 00:27:42;;;;;;;10.43;1.25;;;4.00;99.90;;;;;;5053432;28;20493;-72
2023/03/11 00:30:09;;;;;;;6.93;1.35;;;4.00;99.90;;;;;;5054032;28;20025;-74
2023/03/11 00:32:34;;;;;;;6.88;1.17;;;3.90;99.90;;;;;;5033164;28;20044;-72
2023/03/11 00:35:00;;;;;;;5.47;1.05;;;3.90;99.90;;;;;;5053545;28;20041;-73
2023/03/11 00:37:26;;;;;;;8.13;0.98;;;3.90;99.90;;;;;;5053561;28;20033;-72
2023/03/11 00:39:51;;;;;;;8.70;0.70;;;3.80;99.90;;;;;;5019098;28;20033;-73
2023/03/11 00:42:17;;;;;;;11.48;0.80;;;3.80;99.90;;;;;;5036131;28;20056;-73
2023/03/11 00:44:42;;;;;;;11.18;0.90;;;3.80;99.90;;;;;;5053867;28;20391;-73
2023/03/11 00:47:10;;;;;;;6.28;0.80;;;3.70;99.90;;;;;;5050936;28;20111;-73
2023/03/11 00:49:36;;;;;;;7.53;0.80;;;3.70;99.90;;;;;;5053486;28;20069;-73
2023/03/11 00:52:02;;;;;;;7.63;0.80;;;3.60;99.90;;;;;;5035446;28;20029;-73
2023/03/11 00:54:28;;;;;;;3.45;0.70;;;3.60;99.90;;;;;;5053664;28;20036;-73
2023/03/11 00:56:54;;;;;;;8.38;0.70;;;3.60;99.90;;;;;;5053372;28;20032;-84
2023/03/11 00:59:19;;;;;;;5.82;0.82;;;3.60;99.90;;;;;;5053650;28;20033;-74
2023/03/11 01:01:45;;;;;;;7.60;0.60;;;3.60;99.90;;;;;;5053371;28;20033;-74
2023/03/11 01:04:11;;;;;;;6.70;0.77;;;3.70;99.90;;;;;;5035440;28;20025;-74
2023/03/11 01:06:36;;;;;;;7.40;0.68;;;3.70;99.90;;;;;;5053646;28;20036;-74
2023/03/11 01:09:03;;;;;;;6.03;0.80;;;3.80;99.90;;;;;;5036018;28;20037;-74
2023/03/11 01:11:29;;;;;;;6.40;0.60;;;3.80;99.90;;;;;;5053427;28;20041;-74
2023/03/11 01:13:55;;;;;;;8.00;0.80;;;3.70;99.90;;;;;;5035472;28;20524;-74
2023/03/11 01:16:20;;;;;;;7.03;0.70;;;3.70;99.90;;;;;;5052991;28;20082;-74
2023/03/11 01:18:47;;;;;;;5.97;0.52;;;3.70;99.90;;;;;;5053127;28;20427;-74
2023/03/11 01:21:12;;;;;;;7.43;0.63;;;3.70;99.90;;;;;;5053736;28;20112;-73
2023/03/11 01:23:39;;;;;;;9.70;0.90;;;3.70;99.90;;;;;;5036020;28;20534;-73
2023/03/11 01:26:04;;;;;;;7.78;0.60;;;3.70;99.90;;;;;;5053194;28;20028;-74
2023/03/11 01:28:30;;;;;;;6.05;0.60;;;3.60;99.90;;;;;;5052186;28;20068;-74
2023/03/11 01:30:56;;;;;;;6.38;0.80;;;3.60;99.90;;;;;;5034836;28;20033;-74
2023/03/11 01:33:21;;;;;;;6.07;0.60;;;3.60;99.90;;;;;;5053112;28;20029;-74
2023/03/11 01:35:48;;;;;;;5.47;0.40;;;3.70;99.90;;;;;;5035311;28;20033;-73
2023/03/11 01:38:14;;;;;;;3.70;0.40;;;3.70;99.90;;;;;;5034591;28;20078;-73
2023/03/11 01:40:46;;;;;;;5.57;0.70;;;3.70;99.90;;;;;;5052471;28;20094;-75
2023/03/11 01:43:46;;;;;;;8.10;0.70;;;3.70;99.90;;;;;;5052426;28;20068;-73
2023/03/11 01:46:27;;;;;;;6.93;0.57;;;3.70;99.90;;;;;;5052545;28;20037;-73
2023/03/11 01:48:58;;;;;;;6.72;0.70;;;3.70;99.90;;;;;;5052449;28;20392;-73
2023/03/11 01:51:40;;;;;;;4.10;0.70;;;3.70;99.90;;;;;;5052727;28;20047;-73
2023/03/11 01:54:13;;;;;;;5.10;0.45;;;3.70;99.90;;;;;;5052541;28;20100;-73
2023/03/11 01:56:40;;;;;;;5.22;0.52;;;3.70;99.90;;;;;;5052208;28;20090;-73
2023/03/11 01:59:10;;;;;;;5.80;0.55;;;3.80;99.90;;;;;;5033620;28;20040;-74
2023/03/11 02:01:42;;;;;;;6.63;0.60;;;3.80;99.90;;;;;;5052068;28;20029;-73
2023/03/11 02:04:08;;;;;;;4.83;0.60;;;3.80;99.90;;;;;;5052376;28;20029;-73
2023/03/11 02:06:34;;;;;;;6.60;0.63;;;3.80;99.90;;;;;;5051925;28;20359;-73
2023/03/11 02:09:00;;;;;;;10.27;0.80;;;3.80;99.90;;;;;;5052612;28;20473;-73
2023/03/11 02:11:29;;;;;;;4.50;0.50;;;3.90;99.90;;;;;;5052686;28;20029;-73
2023/03/11 02:14:00;;;;;;;6.90;0.68;;;3.90;99.90;;;;;;5052251;28;20021;-73
2023/03/11 02:16:26;;;;;;;8.25;0.63;;;3.90;99.90;;;;;;5033214;28;20424;-73
2023/03/11 02:18:51;;;;;;;7.13;0.60;;;3.80;99.90;;;;;;5033818;28;20489;-73
2023/03/11 02:21:25;;;;;;;4.53;0.50;;;3.80;99.90;;;;;;5052334;28;20028;-73
2023/03/11 02:23:56;;;;;;;4.68;0.50;;;3.80;99.90;;;;;;5034031;28;20025;-74
2023/03/11 02:26:48;;;;;;;13.63;0.70;;;3.80;99.90;;;;;;5034359;28;20427;-74
2023/03/11 02:29:14;;;;;;;4.95;1.05;;;3.80;99.90;;;;;;5028126;28;20057;-73
2023/03/11 02:31:40;;;;;;;5.80;0.68;;;3.80;99.90;;;;;;5030839;28;20084;-73
2023/03/11 02:34:14;;;;;;;4.80;0.60;;;3.80;99.90;;;;;;5031720;28;20068;-74
2023/03/11 02:36:41;;;;;;;8.55;0.40;;;3.80;99.90;;;;;;5030982;28;20033;-73
2023/03/11 02:39:08;;;;;;;12.93;0.82;;;3.80;99.90;;;;;;5031789;28;20057;-74
2023/03/11 02:41:40;;;;;;;4.15;0.55;;;3.80;99.90;;;;;;5032114;28;20094;-74
2023/03/11 02:44:09;;;;;;;6.30;0.50;;;3.80;99.90;;;;;;5029550;28;20025;-74
2023/03/11 02:46:36;;;;;;;7.40;0.60;;;3.80;99.90;;;;;;5031983;28;20021;-74
2023/03/11 02:49:03;;;;;;;4.57;0.90;;;3.80;99.90;;;;;;5032296;28;20083;-74
2023/03/11 02:51:29;;;;;;;8.30;0.70;;;3.80;99.90;;;;;;5014483;28;20057;-74
2023/03/11 02:53:58;;;;;;;4.25;0.50;;;3.80;99.90;;;;;;5030056;28;20033;-74
2023/03/11 02:56:24;;;;;;;6.32;0.70;;;3.90;99.90;;;;;;5030087;28;20029;-74
2023/03/11 02:58:49;;;;;;;5.72;0.40;;;3.90;99.90;;;;;;5029063;28;20041;-74
2023/03/11 03:01:15;;;;;;;2.38;0.40;;;3.90;99.90;;;;;;5030918;28;20029;-74
2023/03/11 03:03:41;;;;;;;4.68;0.40;;;3.90;99.90;;;;;;5034425;28;20029;-75
2023/03/11 03:06:06;;;;;;;4.22;0.60;;;3.90;99.90;;;;;;5034036;28;20083;-77
2023/03/11 03:08:32;;;;;;;7.10;0.65;;;3.90;99.90;;;;;;5034364;28;20041;-74
2023/03/11 03:10:58;;;;;;;7.07;1.08;;;4.00;99.90;;;;;;5032545;28;20058;-75
2023/03/11 03:13:25;;;;;;;5.45;0.45;;;4.00;99.90;;;;;;5035806;28;20033;-74
2023/03/11 03:15:51;;;;;;;6.45;0.52;;;4.00;99.90;;;;;;5035418;28;20040;-74
2023/03/11 03:18:17;;;;;;;4.68;0.50;;;4.10;99.90;;;;;;5035348;28;20045;-74
2023/03/11 03:20:42;;;;;;;4.55;0.40;;;4.10;99.90;;;;;;5035097;28;20096;-74
2023/03/11 03:23:08;;;;;;;5.82;0.85;;;4.10;99.90;;;;;;5034996;28;20100;-74
2023/03/11 03:25:34;;;;;;;6.70;0.60;;;4.10;99.90;;;;;;5034990;28;20030;-75
2023/03/11 03:27:59;;;;;;;4.53;0.73;;;4.20;99.90;;;;;;5032895;28;20098;-75
2023/03/11 03:30:27;;;;;;;9.25;1.33;;;4.20;99.90;;;;;;5017667;28;20034;-74
2023/03/11 03:32:53;;;;;;;3.53;0.75;;;4.20;99.90;;;;;;5033753;28;20055;-74
2023/03/11 03:35:18;;;;;;;3.47;0.50;;;4.20;99.90;;;;;;5035169;28;20041;-75
2023/03/11 03:37:44;;;;;;;6.20;0.90;;;4.20;99.90;;;;;;5017397;28;20037;-75
2023/03/11 03:40:10;;;;;;;4.32;0.50;;;4.20;99.90;;;;;;5033886;28;20080;-74
2023/03/11 03:42:36;;;;;;;5.72;0.65;;;4.20;99.90;;;;;;5034798;28;20030;-74
2023/03/11 03:45:05;;;;;;;6.25;0.63;;;4.20;99.90;;;;;;5034737;28;20041;-75
2023/03/11 03:47:32;;;;;;;3.03;0.80;;;4.20;99.90;;;;;;5032908;28;20048;-75
2023/03/11 03:49:58;;;;;;;3.67;0.80;;;4.30;99.90;;;;;;5034832;28;20485;-74
2023/03/11 03:52:23;;;;;;;7.80;0.60;;;4.30;99.90;;;;;;5033263;28;20041;-74
2023/03/11 03:54:49;;;;;;;4.40;0.68;;;4.20;99.90;;;;;;5033110;28;20040;-74
2023/03/11 03:57:15;;;;;;;4.45;0.60;;;4.20;99.90;;;;;;5032648;28;20034;-75
2023/03/11 03:59:40;;;;;;;8.65;0.73;;;4.20;99.90;;;;;;5033732;28;20489;-75
2023/03/11 04:02:06;;;;;;;6.22;0.40;;;4.20;99.90;;;;;;5045138;22;20045;-75
2023/03/11 04:04:32;;;;;;;4.72;0.52;;;4.20;99.90;;;;;;5015017;28;20030;-76
2023/03/11 04:06:57;;;;;;;4.50;0.63;;;4.20;99.90;;;;;;5016089;28;20105;-75
2023/03/11 04:09:23;;;;;;;3.97;0.30;;;4.20;99.90;;;;;;4998565;28;20044;-75
2023/03/11 04:11:49;;;;;;;4.13;0.60;;;4.30;99.90;;;;;;5015982;28;20042;-75
2023/03/11 04:14:15;;;;;;;7.47;0.47;;;4.30;99.90;;;;;;5015496;28;20030;-75
2023/03/11 04:16:40;;;;;;;7.70;0.85;;;4.30;99.90;;;;;;4998886;28;20470;-78
2023/03/11 04:19:06;;;;;;;3.47;0.45;;;4.30;99.90;;;;;;4998673;28;20045;-75
2023/03/11 04:21:32;;;;;;;14.82;2.15;;;4.30;99.90;;;;;;5015763;28;20034;-75
2023/03/11 04:23:58;;;;;;;3.90;0.88;;;4.20;99.90;;;;;;5015752;28;20677;-75
2023/03/11 04:26:24;;;;;;;3.95;0.35;;;4.30;99.90;;;;;;5015756;28;20026;-75
2023/03/11 04:28:49;;;;;;;4.38;0.52;;;4.30;99.90;;;;;;4998758;28;20116;-75
2023/03/11 04:31:15;;;;;;;6.32;0.40;;;4.30;99.90;;;;;;5014458;28;20041;-75
2023/03/11 04:33:41;;;;;;;6.75;0.52;;;4.30;99.90;;;;;;5014407;28;20037;-74
2023/03/11 04:36:07;;;;;;;5.03;0.60;;;4.30;99.90;;;;;;5016104;28;20033;-75
2023/03/11 04:38:33;;;;;;;4.82;0.40;;;4.30;99.90;;;;;;5014749;28;20038;-75
2023/03/11 04:41:00;;;;;;;4.20;0.65;;;4.30;99.90;;;;;;4981766;28;20030;-75
2023/03/11 04:43:26;;;;;;;4.07;0.30;;;4.20;99.90;;;;;;4997802;28;20030;-74
2023/03/11 04:45:52;;;;;;;2.72;0.32;;;4.20;99.90;;;;;;5015394;28;20041;-75
2023/03/11 04:48:17;;;;;;;7.07;0.43;;;4.20;99.90;;;;;;5014401;28;20030;-75
2023/03/11 04:50:44;;;;;;;7.03;0.60;;;4.20;99.90;;;;;;5014062;28;20034;-75
2023/03/11 04:53:09;;;;;;;2.80;0.35;;;4.20;99.90;;;;;;5013983;28;20022;-75
2023/03/11 04:55:35;;;;;;;3.42;0.50;;;4.20;99.90;;;;;;5013797;28;20026;-76
2023/03/11 04:58:01;;;;;;;4.80;0.40;;;4.10;99.80;;;;;;5013769;28;20044;-76
2023/03/11 05:00:27;;;;;;;3.40;0.40;;;4.10;99.90;;;;;;4999722;28;20386;-76
2023/03/11 05:02:53;;;;;;;3.30;0.50;;;4.00;99.90;;;;;;5016994;28;20045;-76
2023/03/11 05:05:19;;;;;;;3.53;0.38;;;4.00;99.90;;;;;;5016908;28;20037;-76
2023/03/11 05:07:44;;;;;;;3.15;0.52;;;4.00;99.90;;;;;;5017418;28;20068;-76
2023/03/11 05:10:11;;;;;;;6.80;0.63;;;4.00;99.90;;;;;;5001182;28;20120;-76
2023/03/11 05:12:36;;;;;;;3.65;0.32;;;3.90;99.80;;;;;;5000759;28;20037;-77
2023/03/11 05:15:03;;;;;;;4.82;0.30;;;3.90;99.90;;;;;;5034643;28;20029;-76
2023/03/11 05:17:28;;;;;;;5.60;0.50;;;3.90;99.90;;;;;;5016930;28;20034;-76
2023/03/11 05:19:54;;;;;;;3.22;0.60;;;3.90;99.90;;;;;;5001245;28;20048;-76
2023/03/11 05:22:20;;;;;;;7.68;0.70;;;3.90;99.90;;;;;;5016730;28;20462;-76
2023/03/11 05:24:46;;;;;;;7.57;0.73;;;3.80;99.90;;;;;;5016307;28;20030;-76
2023/03/11 05:27:12;;;;;;;4.18;0.43;;;3.90;99.90;;;;;;5016759;28;20429;-76
2023/03/11 05:29:38;;;;;;;7.25;0.50;;;3.90;99.90;;;;;;5016342;28;20138;-76
2023/03/11 05:32:04;;;;;;;3.42;0.63;;;3.90;99.90;;;;;;5016594;28;20040;-76
2023/03/11 05:34:30;;;;;;;7.10;0.80;;;3.90;99.90;;;;;;5000195;28;20053;-77
2023/03/11 05:36:56;;;;;;;5.22;0.55;;;3.90;99.90;;;;;;5034235;28;20057;-76
2023/03/11 05:39:21;;;;;;;5.25;0.40;;;3.90;99.90;;;;;;5016362;28;20037;-75
2023/03/11 05:41:47;;;;;;;5.80;0.50;;;3.90;99.90;;;;;;4999728;28;20120;-75
2023/03/11 05:44:13;;;;;;;7.88;0.73;;;3.90;99.90;;;;;;5016487;28;20042;-75
2023/03/11 05:46:38;;;;;;;7.93;0.85;;;3.90;99.90;;;;;;5017405;28;20037;-80
2023/03/11 05:49:04;;;;;;;5.72;0.45;;;3.90;99.90;;;;;;5001960;28;20056;-78
2023/03/11 05:51:30;;;;;;;3.08;0.40;;;3.90;99.90;;;;;;5000048;28;20029;-80
2023/03/11 05:53:55;;;;;;;8.05;0.52;;;3.90;99.80;;;;;;5034005;28;20056;-80
2023/03/11 05:56:22;;;;;;;5.80;0.43;;;3.80;99.70;;;;;;4999908;28;20367;-79
2023/03/11 05:58:49;;;;;;;5.50;0.45;;;3.80;99.70;;;;;;5033734;28;20033;-79
2023/03/11 06:01:16;;;;;;;3.50;0.38;;;3.80;99.70;;;;;;5012554;28;20124;-79
2023/03/11 06:03:42;;;;;;;5.40;0.43;;;3.70;99.50;;;;;;5014049;28;20030;-78
2023/03/11 06:06:11;;;;;;;3.08;0.50;;;3.70;99.70;;;;;;5014392;28;20057;-79
2023/03/11 06:08:37;;;;;;;3.10;0.25;;;3.70;99.50;;;;;;5012723;28;20057;-79
2023/03/11 06:11:05;;;;;;;4.60;0.50;;;3.70;99.50;;;;;;5012436;28;20475;-79
2023/03/11 06:13:31;;;;;;;7.05;0.40;;;3.70;99.50;;;;;;5013943;28;20034;-80
2023/03/11 06:15:57;;;;;;;5.15;0.52;;;3.80;99.40;;;;;;5012514;28;20045;-78
2023/03/11 06:18:22;;;;;;;9.05;0.95;;;3.80;99.20;;;;;;4996615;28;20034;-76
2023/03/11 06:20:48;;;;;;;3.63;0.43;;;3.70;99.10;;;;;;5013238;28;20383;-76
2023/03/11 06:23:14;;;;;;;3.75;0.55;;;3.70;99.30;;;;;;4996574;28;20359;-77
2023/03/11 06:25:40;;;;;;;7.32;0.80;;;3.70;99.20;;;;;;5013576;28;20061;-76
2023/03/11 06:28:05;;;;;;;3.63;0.40;;;3.60;99.10;;;;;;5012620;28;20034;-76
2023/03/11 06:30:31;;;;;;;3.38;0.50;;;3.60;99.20;;;;;;4996012;28;20390;-77
2023/03/11 06:32:57;;;;;;;3.47;0.30;;;3.60;99.30;;;;;;5012783;28;20057;-81
2023/03/11 06:35:22;;;;;;;6.25;0.50;;;3.60;99.30;;;;;;4995921;28;20401;-76
2023/03/11 06:37:48;;;;;;;4.22;0.40;;;3.60;99.20;;;;;;5015310;28;20060;-76
2023/03/11 06:40:14;;;;;;;5.80;1.10;;;3.70;99.30;;;;;;5016217;28;20076;-77
2023/03/11 06:42:40;;;;;;;4.10;0.30;;;3.80;99.30;;;;;;5016160;28;20037;-76
2023/03/11 06:45:06;;;;;;;5.93;0.40;;;3.80;99.30;;;;;;4999718;28;20038;-76
2023/03/11 06:47:31;;;;;;;4.85;0.30;;;3.90;99.20;;;;;;4999963;28;20049;-77
2023/03/11 06:49:57;;;;;;;3.70;0.40;;;4.00;99.20;;;;;;5017098;28;20038;-79
2023/03/11 06:52:23;;;;;;;2.47;0.30;;;4.00;99.10;;;;;;4983553;28;20025;-75
2023/03/11 06:54:48;;;;;;;2.85;0.40;;;4.00;99.30;;;;;;5000551;28;20033;-75
2023/03/11 06:57:15;;;;;;;5.50;0.30;;;4.10;99.40;;;;;;5017177;28;20030;-78
2023/03/11 06:59:41;;;;;;;3.85;0.30;;;4.10;99.90;;;;;;5017153;28;20104;-74
2023/03/11 07:02:12;;;;;;;4.55;0.50;;;4.10;99.50;;;;;;5015568;28;20045;-74
2023/03/11 07:04:37;;;;;;;2.78;0.35;;;4.10;99.80;;;;;;5016442;28;20034;-74
2023/03/11 07:07:03;;;;;;;2.10;0.32;;;4.20;99.90;;;;;;5017346;28;20034;-74
2023/03/11 07:09:29;;;;;;;4.82;0.95;;;4.30;99.70;;;;;;4999455;28;20045;-73
2023/03/11 07:11:54;;;;;;;3.15;0.20;;;4.40;99.60;;;;;;4983264;28;20037;-73
2023/03/11 07:14:20;;;;;;;6.88;0.50;;;4.50;99.90;;;;;;5016777;28;20032;-73
2023/03/11 07:16:46;;;;;;;6.72;0.38;;;4.70;99.90;;;;;;5015664;28;20501;-73
2023/03/11 07:19:12;;;;;;;5.80;0.32;;;4.80;99.90;;;;;;5015620;28;20038;-74
2023/03/11 07:21:38;;;;;;;3.28;0.40;;;4.90;99.70;;;;;;5015607;28;20065;-74
2023/03/11 07:24:05;;;;;;;6.30;0.40;;;5.00;99.70;;;;;;5015560;28;20026;-73
2023/03/11 07:26:32;;;;;;;4.68;0.40;;;5.20;99.80;;;;;;4999199;28;20030;-74
2023/03/11 07:28:58;;;;;;;3.60;0.30;;;5.30;99.60;;;;;;4998977;28;20092;-73
2023/03/11 07:31:26;;;;;;;5.97;0.52;;;5.50;99.30;;;;;;5015777;28;20034;-75
2023/03/11 07:33:52;;;;;;;4.90;0.28;;;5.60;99.30;;;;;;5016641;28;20455;-75
2023/03/11 07:36:22;;;;;;;3.45;0.45;;;5.80;99.00;;;;;;5016490;28;20030;-77
2023/03/11 07:38:48;;;;;;;2.70;0.35;;;5.90;98.60;;;;;;5016264;28;20033;-76
2023/03/11 07:41:14;;;;;;;3.67;0.30;;;6.00;98.40;;;;;;5015213;28;20022;-75
2023/03/11 07:43:41;;;;;;;3.22;0.60;;;6.10;98.00;;;;;;4999190;28;20036;-76
2023/03/11 07:46:15;;;;;;;3.47;0.52;;;6.20;97.60;;;;;;5015210;28;20033;-77
2023/03/11 07:48:41;;;;;;;3.92;0.60;;;6.30;97.00;;;;;;5015997;28;20029;-77
2023/03/11 07:51:10;;;;;;;7.97;1.02;;;6.40;96.90;;;;;;5014981;28;20164;-76
2023/03/11 07:53:36;;;;;;;2.67;0.82;;;6.50;96.80;;;;;;5015000;28;20057;-74
2023/03/11 07:56:03;;;;;;;4.45;0.52;;;6.60;96.30;;;;;;4998680;28;20108;-77
2023/03/11 07:58:29;;;;;;;6.70;0.57;;;6.60;96.30;;;;;;5014970;28;20042;-74
2023/03/11 08:00:55;;;;;;;4.85;0.80;;;6.70;96.40;;;;;;5021760;28;20049;-78
2023/03/11 08:03:23;;;;;;;9.00;0.95;;;6.80;96.20;;;;;;5018161;28;20036;-76
2023/03/11 08:05:49;;;;;;;4.88;0.75;;;6.90;95.60;;;;;;5035974;28;20059;-76
2023/03/11 08:08:15;;;;;;;5.18;0.93;;;6.90;95.80;;;;;;5017969;28;20040;-77
2023/03/11 08:10:41;;;;;;;3.67;0.40;;;7.00;95.70;;;;;;5017860;28;20459;-76
2023/03/11 08:13:06;;;;;;;4.82;0.28;;;7.10;95.80;;;;;;5018292;28;20520;-74
2023/03/11 08:15:32;;;;;;;3.75;0.30;;;7.20;95.60;;;;;;5018035;28;20429;-73
2023/03/11 08:17:58;;;;;;;4.70;0.30;;;7.30;95.30;;;;;;5018135;28;20597;-75
2023/03/11 08:20:23;;;;;;;4.45;0.25;;;7.40;93.70;;;;;;5035559;28;20025;-79
2023/03/11 08:22:49;;;;;;;6.47;0.50;;;7.50;93.50;;;;;;5035163;28;20044;-74
2023/03/11 08:25:15;;;;;;;3.10;0.30;;;7.50;93.70;;;;;;5017678;28;20087;-74
2023/03/11 08:27:41;;;;;;;5.40;0.30;;;7.70;93.70;;;;;;5035182;28;20037;-73
2023/03/11 08:30:07;;;;;;;3.85;0.30;;;7.70;92.90;;;;;;5035837;28;20026;-73
2023/03/11 08:32:33;;;;;;;1.23;0.20;;;7.80;92.60;;;;;;5034707;28;20033;-74
2023/03/11 08:34:58;;;;;;;2.67;0.30;;;7.80;92.50;;;;;;5017255;28;20520;-72
2023/03/11 08:37:24;;;;;;;4.15;0.40;;;7.80;91.50;;;;;;5018301;28;20357;-74
2023/03/11 08:39:50;;;;;;;3.45;0.40;;;7.70;91.60;;;;;;5017901;28;20037;-73
2023/03/11 08:42:16;;;;;;;4.07;0.50;;;7.70;91.80;;;;;;5001573;28;20034;-74
2023/03/11 08:44:42;;;;;;;4.63;0.38;;;7.90;91.60;;;;;;5034993;28;20026;-73
2023/03/11 08:47:08;;;;;;;4.28;0.32;;;8.00;91.50;;;;;;5017232;28;20409;-74
2023/03/11 08:49:35;;;;;;;4.63;0.40;;;8.10;91.20;;;;;;5017435;28;20358;-74
2023/03/11 08:52:01;;;;;;;1.65;0.32;;;8.30;90.90;;;;;;5017622;28;20116;-74
2023/03/11 08:54:29;;;;;;;3.35;0.65;;;8.40;90.80;;;;;;5034962;28;20087;-74
2023/03/11 08:56:54;;;;;;;3.22;0.40;;;8.50;90.30;;;;;;5034473;28;20524;-73
2023/03/11 08:59:20;;;;;;;5.00;0.40;;;8.60;90.10;;;;;;5000029;28;20033;-74
2023/03/11 09:01:46;;;;;;;3.03;0.60;;;8.70;89.70;;;;;;5016719;28;20061;-73
2023/03/11 09:04:12;;;;;;;3.38;0.50;;;8.80;88.00;;;;;;5017011;28;20378;-73
2023/03/11 09:06:42;;;;;;;5.65;0.50;;;8.90;88.00;;;;;;5034664;28;20381;-73
2023/03/11 09:09:10;;;;;;;4.38;0.35;;;9.00;87.70;;;;;;5017394;28;20065;-73
2023/03/11 09:11:36;;;;;;;2.67;0.25;;;8.90;83.70;;;;;;5034233;28;20041;-74
2023/03/11 09:14:02;;;;;;;4.80;1.25;;;8.60;83.60;;;;;;5034519;28;20029;-74
2023/03/11 09:16:28;;;;;;;1.35;0.20;;;8.60;84.70;;;;;;5017301;28;20064;-74
2023/03/11 09:18:54;;;;;;;2.67;0.68;;;8.70;83.80;;;;;;5000344;28;20482;-74
2023/03/11 09:21:20;;;;;;;2.40;0.20;;;8.90;83.10;;;;;;5034409;28;20037;-74
2023/03/11 09:23:46;;;;;;;3.08;0.32;;;9.00;82.30;;;;;;5034290;28;20026;-73
2023/03/11 09:26:12;;;;;;;2.20;0.20;;;9.00;82.00;;;;;;5016508;28;20057;-74
2023/03/11 09:28:39;;;;;;;3.47;0.22;;;9.10;82.20;;;;;;5034459;28;20037;-74
2023/03/11 09:31:05;;;;;;;4.82;0.30;;;9.10;80.30;;;;;;5016678;28;20083;-74
2023/03/11 09:33:39;;;;;;;2.85;0.25;;;9.20;79.00;;;;;;5033968;28;20057;-74
2023/03/11 09:36:06;;;;;;;5.72;0.75;;;9.20;79.20;;;;;;5016412;28;20061;-75
2023/03/11 09:38:32;;;;;;;3.47;0.55;;;9.30;80.50;;;;;;5000701;28;20044;-75
2023/03/11 09:41:39;;;;;;;12.23;0.55;;;9.40;81.30;;;;;;5000026;28;20030;-74
2023/03/11 09:44:17;;;;;;;2.58;0.50;;;9.50;80.80;;;;;;5000183;28;20036;-74
2023/03/11 09:47:01;;;;;;;1.70;0.30;;;9.40;79.10;;;;;;5016972;28;20030;-74
2023/03/11 09:49:49;;;;;;;3.88;0.20;;;9.20;79.00;;;;;;5033758;28;20438;-74
2023/03/11 09:52:29;;;;;;;2.00;0.25;;;9.30;78.70;;;;;;5034137;28;20033;-74
2023/03/11 09:54:55;;;;;;;1.67;0.10;;;9.30;78.20;;;;;;5034404;28;20034;-74
2023/03/11 09:57:31;;;;;;;1.73;0.20;;;9.30;78.00;;;;;;4999740;28;20385;-75
2023/03/11 09:59:58;;;;;;;3.58;0.20;;;9.30;76.80;;;;;;5034075;28;20048;-74
2023/03/11 10:02:26;;;;;;;3.85;0.30;;;9.40;76.10;;;;;;5034635;28;20057;-75
2023/03/11 10:05:18;;;;;;;4.80;0.30;;;9.30;75.20;;;;;;5016072;28;20025;-74
2023/03/11 10:07:50;;;;;;;2.78;0.50;;;9.30;74.70;;;;;;5016583;28;20055;-75
2023/03/11 10:10:17;;;;;;;14.88;0.88;;;9.40;75.90;;;;;;5033677;28;20033;-75
2023/03/11 10:13:04;;;;;;;3.80;0.35;;;9.60;75.90;;;;;;4999855;28;20053;-74
2023/03/11 10:16:19;;;;;;;4.00;0.30;;;9.80;76.30;;;;;;5033327;28;20133;-73
2023/03/11 10:19:02;;;;;;;3.10;0.10;;;9.90;76.00;;;;;;5012086;28;20612;-73
2023/03/11 10:21:42;;;;;;;4.93;0.10;;;10.10;73.10;;;;;;5033740;28;20026;-74
2023/03/11 10:24:36;;;;;;;2.47;0.13;;;10.10;70.50;;;;;;5015499;28;20026;-74
2023/03/11 10:27:12;;;;;;;3.30;0.20;;;10.10;67.20;;;;;;5016448;28;20032;-76
2023/03/11 10:30:07;;;;;;;2.33;0.40;;;10.10;67.40;;;;;;5033534;28;20071;-74
2023/03/11 10:32:44;;;;;;;3.92;0.30;;;10.10;67.30;;;;;;5015513;28;20025;-77
2023/03/11 10:35:28;;;;;;;2.53;0.10;;;10.00;67.00;;;;;;5033958;28;20026;-75
2023/03/11 10:38:02;;;;;;;2.78;0.20;;;9.90;67.80;;;;;;5033771;28;20025;-75
2023/03/11 10:40:34;;;;;;;3.65;0.40;;;9.90;67.80;;;;;;5015910;28;20030;-75
2023/03/11 10:43:08;;;;;;;2.90;0.25;;;9.90;67.80;;;;;;5015507;28;20026;-76
2023/03/11 10:45:42;;;;;;;2.05;0.20;;;9.90;68.50;;;;;;5033903;28;20112;-74
2023/03/11 10:48:10;;;;;;;4.00;0.20;;;9.90;66.60;;;;;;5000709;28;20065;-75
2023/03/11 10:50:36;;;;;;;4.35;0.22;;;9.80;67.30;;;;;;5015574;28;20034;-75
2023/03/11 10:53:12;;;;;;;1.92;0.20;;;9.90;68.20;;;;;;5015633;28;20347;-73
2023/03/11 10:55:47;;;;;;;2.17;0.20;;;10.00;68.30;;;;;;5033905;28;20076;-73
2023/03/11 10:58:16;;;;;;;2.85;0.20;;;9.90;66.80;;;;;;5033081;28;20065;-73
2023/03/11 11:00:42;;;;;;;2.50;0.20;;;9.90;67.10;;;;;;5032829;28;20536;-73
2023/03/11 11:03:22;;;;;;;7.50;0.68;;;9.90;67.00;;;;;;5033511;28;20021;-76
2023/03/11 11:06:04;;;;;;;8.68;0.65;;;9.90;66.80;;;;;;5032623;28;20021;-73
2023/03/11 11:08:30;;;;;;;5.93;0.47;;;9.90;66.90;;;;;;5032778;28;20484;-73
2023/03/11 11:10:59;;;;;;;3.47;0.30;;;9.80;66.10;;;;;;5033431;28;20050;-74
2023/03/11 11:13:30;;;;;;;2.53;0.30;;;9.80;65.90;;;;;;5032981;28;20025;-73
2023/03/11 11:16:23;;;;;;;4.30;0.32;;;9.90;67.20;;;;;;5016147;28;20022;-77
2023/03/11 11:19:01;;;;;;;3.13;0.20;;;10.00;66.30;;;;;;5033036;28;20046;-73
2023/03/11 11:21:31;;;;;;;3.47;0.20;;;10.10;66.10;;;;;;5032706;28;20535;-73
2023/03/11 11:23:59;;;;;;;4.07;0.20;;;10.30;66.70;;;;;;5018349;28;20029;-73
2023/03/11 11:26:25;;;;;;;4.40;0.17;;;10.50;65.90;;;;;;5036494;28;20022;-74
2023/03/11 11:29:09;;;;;;;2.88;0.30;;;10.50;64.80;;;;;;5037133;28;20500;-73
2023/03/11 11:31:37;;;;;;;6.68;0.65;;;10.50;64.40;;;;;;5018684;28;20025;-74
2023/03/11 11:34:05;;;;;;;3.42;0.30;;;10.60;64.30;;;;;;5002347;28;20061;-74
2023/03/11 11:36:35;;;;;;;1.48;0.30;;;10.60;64.20;;;;;;5036662;28;20028;-74
2023/03/11 11:39:03;;;;;;;2.45;0.40;;;10.60;63.30;;;;;;5019077;28;20033;-75
2023/03/11 11:41:31;;;;;;;3.65;0.30;;;10.80;65.30;;;;;;5036316;28;20099;-76
2023/03/11 11:44:00;;;;;;;3.53;0.90;;;10.90;65.70;;;;;;5018973;28;20382;-75
2023/03/11 11:46:43;;;;;;;3.80;0.40;;;11.10;64.90;;;;;;5036589;28;20032;-73
2023/03/11 11:49:17;;;;;;;2.17;0.22;;;11.30;64.10;;;;;;5018979;28;20037;-74
2023/03/11 11:52:10;;;;;;;3.90;0.52;;;11.40;63.00;;;;;;5018604;28;20033;-75
2023/03/11 11:54:41;;;;;;;4.13;0.30;;;11.60;64.00;;;;;;5035614;28;20041;-75
2023/03/11 11:57:16;;;;;;;2.72;0.30;;;11.80;65.30;;;;;;5018937;28;20030;-75
2023/03/11 11:59:42;;;;;;;4.15;0.22;;;11.70;62.30;;;;;;5035656;28;20037;-75
2023/03/11 12:02:30;;;;;;;3.13;0.35;;;11.70;60.30;;;;;;5036437;28;20092;-74
2023/03/11 12:05:20;;;;;;;3.67;0.28;;;11.50;60.70;;;;;;5018211;28;20112;-74
2023/03/11 12:07:55;;;;;;;4.55;0.32;;;11.60;60.30;;;;;;5018751;28;20363;-75
2023/03/11 12:10:26;;;;;;;1.95;0.20;;;11.40;60.60;;;;;;5036428;28;20026;-74
2023/03/11 12:13:22;;;;;;;2.75;0.40;;;11.40;61.20;;;;;;5018064;28;20478;-75
2023/03/11 12:15:59;;;;;;;6.03;0.77;;;11.30;60.90;;;;;;5036011;28;20021;-75
2023/03/11 12:19:03;;;;;;;3.83;0.40;;;11.20;61.80;;;;;;5035930;28;20033;-74
2023/03/11 12:21:52;;;;;;;2.92;0.20;;;11.10;61.60;;;;;;5012170;28;20048;-75
2023/03/11 12:24:48;;;;;;;3.15;0.38;;;11.20;61.20;;;;;;5006018;28;20037;-75
2023/03/11 12:27:30;;;;;;;2.75;0.30;;;11.20;59.40;;;;;;5035934;28;20065;-75
2023/03/11 12:30:01;;;;;;;3.28;0.17;;;11.20;59.30;;;;;;5017877;28;20026;-74
2023/03/11 12:32:37;;;;;;;1.23;0.22;;;11.40;59.40;;;;;;5035821;28;20034;-75
2023/03/11 12:35:28;;;;;;;3.75;0.20;;;11.40;60.00;;;;;;5034391;28;20115;-75
2023/03/11 12:38:03;;;;;;;3.15;0.20;;;11.50;58.50;;;;;;5017854;28;20060;-75
2023/03/11 12:40:48;;;;;;;3.28;0.30;;;11.60;58.00;;;;;;5035524;28;20033;-75
2023/03/11 12:43:34;;;;;;;4.60;0.40;;;11.50;57.20;;;;;;5035307;28;20374;-75
2023/03/11 12:46:04;;;;;;;3.38;0.20;;;11.40;58.60;;;;;;5017905;28;20079;-75
2023/03/11 12:48:48;;;;;;;4.75;0.73;;;11.40;58.00;;;;;;5017143;28;20462;-74
2023/03/11 12:51:26;;;;;;;2.50;0.10;;;11.40;57.40;;;;;;5017546;28;20044;-74
2023/03/11 12:53:55;;;;;;;3.60;0.20;;;11.50;58.10;;;;;;5017275;28;20034;-74
2023/03/11 12:56:36;;;;;;;3.17;0.20;;;11.60;57.90;;;;;;5001534;28;20033;-75
2023/03/11 12:59:15;;;;;;;3.17;0.30;;;11.80;55.70;;;;;;5017649;28;20108;-75
2023/03/11 13:01:52;;;;;;;2.47;0.10;;;11.90;55.60;;;;;;5014011;28;20050;-75
2023/03/11 13:04:29;;;;;;;6.13;0.25;;;11.80;55.00;;;;;;5015588;28;20037;-75
2023/03/11 13:07:22;;;;;;;2.42;0.20;;;11.90;56.40;;;;;;5015051;28;20040;-73